Wilmington, OH

3:00 PM EDT on July 07, 2015 (GMT -0400)
Little House On The Prairie | | Change Station
CLOSE
Current Station
Personal Weather Station
Location: Wilmington, OH
Elevation: 1043 ft
Nearby Weather Stations

Elev 1043 ft 39.45 °N, 83.82 °W | Updated 9 seconds ago

Overcast
Overcast
77.7 °F
Feels Like 80 °F
N
3.0
Wind Variable Wind from SSE
Gusts 11.0 mph

Today
High -- | Low -- °F
--% Chance of Precip.
Yesterday
High -- | Low -- °F
Precip. -- in
6:15 AM 9:05 PM
Waning Gibbous, 62% visible
Pressure 29.91 in
Visibility 10.0 miles
Clouds Few 2800 ft
Mostly Cloudy 4200 ft
Overcast 5500 ft
Heat Index 80 °F
Dew Point 74 °F
Humidity 87%
Rainfall 0.07 in
Snow Depth Not available.
UV 3 out of 12
Pollen 2.00 out of 12
Air Quality Not available.
Flu Activity Not available.
METAR KILN 071854Z AUTO 23018G30KT 10SM FEW028 BKN042 OVC055 27/21 A2994 RMK AO2 PK WND 22030/1845 LTG DSNT N AND SE AND NW SLP127 T02670206

More Conditions Fewer Conditions

Pressure 29.91 in
Visibility 10.0 miles
Clouds Few 2800 ft
Mostly Cloudy 4200 ft
Overcast 5500 ft
Heat Index 80 °F
Dew Point 74 °F
Humidity 87%
Rainfall 0.07 in
Snow Depth Not available.
UV 3 out of 12
Pollen 2.00 out of 12
Air Quality Not available.
Flu Activity Not available.
METAR KILN 071854Z AUTO 23018G30KT 10SM FEW028 BKN042 OVC055 27/21 A2994 RMK AO2 PK WND 22030/1845 LTG DSNT N AND SE AND NW SLP127 T02670206

More Conditions Fewer Conditions

10-Day Weather Forecast

×

Almanac

Astronomy

Jul. 07, 2015 Rise Set
Actual Time
Civil Twilight
Nautical Twilight
Astronomical Twilight
Moon
Length of Visible Light
Length of Day
Tomorrow will be .
, % of the Moon is Illuminated

Today's Extremes

State Highs State Lows

Community

WunderPhotos

Upload Photos

1,835,873 photos uploaded!

WunderBlogs® & News

Nearby

Air Quality

  Air Quality AQ Index Pollutant
Not available.

Snow Depth

Station Depth Elevation

Earthquake Activity

City Distance Mag. Time & Date
Minimum magnitude displayed is 2.5.

Coastal Water Temperatures

Place Temperature

Stations

Nearby Weather Stations

Station Location Temp. Windchill Dew Point Humidity Wind Precip. Elev Updated Type